Terminal Aerodrome Forecast
Issued by NWS

Home | Current Version | Previous Version | Text Only | Print | Product List | Glossary On
Versions: 1 2 3 4 5 6 7 8 9 10 11 12 13 14 15 16 17 18
000
FTUS41 KGYX 240520
TAFRKD
TAF
KRKD 240520Z 2406/2506 VRB04KT 3SM BR BKN080
     FM241000 14006KT 3SM BR OVC025
     FM241300 14010G18KT 2SM -RA BR OVC003 WS020/17060KT
     FM241500 15016G26KT 1SM RA BR OVC001
     FM241800 16018G28KT 2SM -DZ BR OVC003
     FM242000 19014G22KT 2SM -DZ BR OVC003
      AMD LTD TO VIS CLD AND WIND=

USA.gov is the U.S. government's official web portal to all federal, state and local government web resources and services.